Time;durP1;ratioP1;P1;durP2;ratioP2;P2;SDS_P1;SDS_P2;PMS_P1;PMS_P2;Temp;Humidity;BMP_temperature;BMP_pressure;BME280_temperature;BME280_humidity;BME280_pressure;Samples;Min_cycle;Max_cycle;Signal;HPM_P1;HPM_P2
2023/07/07 00:01:02;;;;;;;1999.90;999.90;;;14.70;99.90;;;;;;4918142;29;20047;-72
2023/07/07 00:03:29;;;;;;;1999.90;999.90;;;14.70;99.90;;;;;;4916778;29;20184;-72
2023/07/07 00:05:54;;;;;;;1999.90;999.90;;;14.60;99.90;;;;;;4917497;29;20507;-71
2023/07/07 00:08:20;;;;;;;1999.90;999.90;;;14.60;99.90;;;;;;4917886;29;20047;-72
2023/07/07 00:10:47;;;;;;;1999.90;999.90;;;14.60;99.90;;;;;;4917041;29;20055;-72
2023/07/07 00:13:15;;;;;;;1999.90;999.90;;;14.60;99.90;;;;;;4917748;29;20393;-72
2023/07/07 00:15:44;;;;;;;1999.90;999.90;;;14.60;99.90;;;;;;4917572;29;20131;-72
2023/07/07 00:18:16;;;;;;;1999.90;999.90;;;14.60;99.90;;;;;;4917924;29;20048;-72
2023/07/07 00:20:42;;;;;;;1999.90;999.90;;;14.50;99.90;;;;;;4918280;29;20055;-72
2023/07/07 00:23:08;;;;;;;1999.90;999.90;;;14.50;99.90;;;;;;4916285;29;20052;-72
2023/07/07 00:25:33;;;;;;;1999.90;999.90;;;14.50;99.90;;;;;;4917486;29;20055;-72
2023/07/07 00:27:59;;;;;;;1999.90;999.90;;;14.50;99.90;;;;;;4917525;29;20056;-72
2023/07/07 00:30:25;;;;;;;1999.90;999.90;;;14.40;99.90;;;;;;4917780;29;20048;-71
2023/07/07 00:32:51;;;;;;;1999.90;999.90;;;14.40;99.90;;;;;;4916527;29;20232;-72
2023/07/07 00:35:16;;;;;;;1999.90;999.90;;;14.40;99.90;;;;;;4917587;29;20054;-72
2023/07/07 00:37:45;;;;;;;1999.90;999.90;;;14.40;99.90;;;;;;4918359;29;20487;-72
2023/07/07 00:40:12;;;;;;;1999.90;999.90;;;14.30;99.90;;;;;;4916752;29;20048;-72
2023/07/07 00:42:37;;;;;;;1999.90;999.90;;;14.30;99.90;;;;;;4918110;29;20052;-72
2023/07/07 00:45:13;;;;;;;1999.90;999.90;;;14.30;99.90;;;;;;4917344;29;20044;-72
2023/07/07 00:47:45;;;;;;;1999.90;999.90;;;14.30;99.90;;;;;;4917464;29;20044;-72
2023/07/07 00:50:14;;;;;;;1999.90;999.90;;;14.30;99.90;;;;;;4917215;29;20441;-73
2023/07/07 00:52:44;;;;;;;1999.90;999.90;;;14.30;99.90;;;;;;4916282;29;20288;-73
2023/07/07 00:55:15;;;;;;;1999.90;999.90;;;14.30;99.90;;;;;;4916919;29;20429;-73
2023/07/07 00:57:41;;;;;;;1999.90;999.90;;;14.20;99.90;;;;;;4917250;29;20048;-73
2023/07/07 01:00:08;;;;;;;1999.90;999.90;;;14.30;99.90;;;;;;4916957;29;20052;-73
2023/07/07 01:02:34;;;;;;;1999.90;999.90;;;14.20;99.90;;;;;;4916053;29;20367;-72
2023/07/07 01:05:03;;;;;;;1999.90;999.90;;;14.20;99.90;;;;;;4917155;29;20047;-72
2023/07/07 01:07:38;;;;;;;1999.90;999.90;;;14.20;99.90;;;;;;4916687;29;20389;-72
2023/07/07 01:10:04;;;;;;;1999.90;999.90;;;14.20;99.90;;;;;;4917200;29;20059;-73
2023/07/07 01:12:30;;;;;;;1999.90;999.90;;;14.20;99.90;;;;;;4917137;29;20062;-73
2023/07/07 01:14:55;;;;;;;1999.90;999.90;;;14.20;99.90;;;;;;4917597;29;20056;-72
2023/07/07 01:17:30;;;;;;;1999.90;999.90;;;14.20;99.90;;;;;;4917085;29;20048;-72
2023/07/07 01:20:41;;;;;;;1999.90;999.90;;;14.20;99.90;;;;;;4917174;29;20048;-72
2023/07/07 01:23:13;;;;;;;1999.90;999.90;;;14.20;99.90;;;;;;4918048;29;20051;-73
2023/07/07 01:26:14;;;;;;;1999.90;999.90;;;14.20;99.90;;;;;;4904885;29;20080;-72
2023/07/07 01:29:25;;;;;;;1999.90;999.90;;;14.20;99.90;;;;;;4920713;29;20091;-72
2023/07/07 01:32:21;;;;;;;1999.90;999.90;;;14.20;99.90;;;;;;4905446;29;20063;-72
2023/07/07 01:34:48;;;;;;;1999.90;999.90;;;14.20;99.90;;;;;;4911853;29;20056;-72
2023/07/07 01:37:14;;;;;;;1999.90;999.90;;;14.10;99.90;;;;;;4919177;29;20063;-73
2023/07/07 01:39:43;;;;;;;1999.90;999.90;;;14.20;99.90;;;;;;4888322;29;20120;-73
2023/07/07 01:42:36;;;;;;;1999.90;999.90;;;14.10;99.90;;;;;;4921024;29;20060;-73
2023/07/07 01:45:30;;;;;;;1999.90;999.90;;;14.10;99.90;;;;;;4920549;29;20123;-72
2023/07/07 01:48:05;;;;;;;1999.90;999.90;;;14.10;99.90;;;;;;4919751;29;20051;-73
2023/07/07 01:50:33;;;;;;;1999.90;999.90;;;14.10;99.90;;;;;;4920190;29;20055;-72
2023/07/07 01:53:06;;;;;;;1999.90;999.90;;;14.10;99.90;;;;;;4920153;29;20490;-73
2023/07/07 01:55:34;;;;;;;;;;;14.10;99.90;;;;;;4920547;29;20083;-73
2023/07/07 01:58:02;;;;;;;1999.90;999.90;;;14.00;99.90;;;;;;4919146;29;19979;-73
2023/07/07 02:00:30;;;;;;;1999.90;999.90;;;14.00;99.90;;;;;;4919099;29;20055;-73
2023/07/07 02:02:57;;;;;;;1999.90;999.90;;;14.00;99.90;;;;;;4920036;29;20389;-73
2023/07/07 02:05:23;;;;;;;1999.90;999.90;;;14.00;99.90;;;;;;4920003;29;20052;-73
2023/07/07 02:07:49;;;;;;;1999.90;999.90;;;14.00;99.90;;;;;;4919965;29;20052;-73
2023/07/07 02:10:15;;;;;;;1999.90;999.90;;;14.00;99.90;;;;;;4918685;29;20059;-73
2023/07/07 02:12:41;;;;;;;1999.90;999.90;;;13.90;99.90;;;;;;4919185;29;20048;-73
2023/07/07 02:15:07;;;;;;;1999.90;999.90;;;13.90;99.90;;;;;;4919478;29;20123;-73
2023/07/07 02:17:33;;;;;;;1999.90;999.90;;;13.90;99.90;;;;;;4919750;29;20062;-72
2023/07/07 02:19:59;;;;;;;1999.90;999.90;;;13.90;99.90;;;;;;4919017;29;20044;-72
2023/07/07 02:22:25;;;;;;;1999.90;999.90;;;13.90;99.90;;;;;;4920448;29;20474;-72
2023/07/07 02:24:51;;;;;;;1999.90;999.90;;;13.90;99.90;;;;;;4918642;29;20048;-72
2023/07/07 02:27:17;;;;;;;1999.90;999.90;;;13.90;99.90;;;;;;4919577;29;20112;-72
2023/07/07 02:29:43;;;;;;;1999.90;999.90;;;13.80;99.90;;;;;;4918859;29;20052;-73
2023/07/07 02:32:09;;;;;;;1999.90;999.90;;;13.80;99.90;;;;;;4919539;29;20155;-72
2023/07/07 02:34:35;;;;;;;1999.90;999.90;;;13.80;99.90;;;;;;4918534;29;20077;-73
2023/07/07 02:37:01;;;;;;;1999.90;999.90;;;13.80;99.90;;;;;;4919563;29;20063;-72
2023/07/07 02:39:27;;;;;;;1999.90;999.90;;;13.80;99.90;;;;;;4919363;29;20095;-72
2023/07/07 02:41:53;;;;;;;1999.90;999.90;;;13.80;99.90;;;;;;4919349;29;20064;-73
2023/07/07 02:44:19;;;;;;;1999.90;999.90;;;13.70;99.90;;;;;;4919857;29;20063;-72
2023/07/07 02:46:45;;;;;;;1999.90;999.90;;;13.70;99.90;;;;;;4919314;29;20044;-73
2023/07/07 02:49:11;;;;;;;1999.90;999.90;;;13.70;99.90;;;;;;4918869;29;20060;-73
2023/07/07 02:51:37;;;;;;;1999.90;999.90;;;13.70;99.90;;;;;;4919002;29;20446;-73
2023/07/07 02:54:03;;;;;;;1999.90;999.90;;;13.70;99.90;;;;;;4919037;29;20088;-73
2023/07/07 02:56:29;;;;;;;1999.90;999.90;;;13.70;99.90;;;;;;4886525;29;20051;-72
2023/07/07 02:58:54;;;;;;;1999.90;999.90;;;13.70;99.90;;;;;;4917787;29;20130;-72
2023/07/07 03:01:21;;;;;;;1999.90;999.90;;;13.70;99.90;;;;;;4918989;29;20063;-72
2023/07/07 03:03:51;;;;;;;1999.90;999.90;;;13.70;99.90;;;;;;4919228;29;20051;-72
2023/07/07 03:06:20;;;;;;;1999.90;999.90;;;13.70;99.90;;;;;;4918841;29;20044;-72
2023/07/07 03:08:46;;;;;;;1999.90;999.90;;;13.70;99.90;;;;;;4918245;29;20060;-72
2023/07/07 03:11:15;;;;;;;1999.90;999.90;;;13.60;99.90;;;;;;4917610;29;20058;-73
2023/07/07 03:13:42;;;;;;;1999.90;999.90;;;13.60;99.90;;;;;;4918718;29;20051;-72
2023/07/07 03:16:20;;;;;;;1999.90;999.90;;;13.60;99.90;;;;;;4918353;29;20482;-73
2023/07/07 03:18:48;;;;;;;1999.90;999.90;;;13.60;99.90;;;;;;4917502;29;20504;-72
2023/07/07 03:21:16;;;;;;;1999.90;999.90;;;13.60;99.90;;;;;;4918315;29;20497;-72
2023/07/07 03:23:42;;;;;;;1999.90;999.90;;;13.60;99.90;;;;;;4918468;29;20052;-72
2023/07/07 03:26:18;;;;;;;1999.90;999.90;;;13.50;99.90;;;;;;4918186;29;20116;-72
2023/07/07 03:28:44;;;;;;;1999.90;999.90;;;13.60;99.90;;;;;;4917378;29;20050;-72
2023/07/07 03:31:11;;;;;;;1999.90;999.90;;;13.60;99.90;;;;;;4918475;29;20051;-73
2023/07/07 03:33:39;;;;;;;1999.90;999.90;;;13.50;99.90;;;;;;4917516;29;20051;-72
2023/07/07 03:36:05;;;;;;;1999.90;999.90;;;13.60;99.90;;;;;;4918095;29;20500;-73
2023/07/07 03:38:31;;;;;;;1999.90;999.90;;;13.50;99.90;;;;;;4918932;29;20048;-72
2023/07/07 03:40:57;;;;;;;1999.90;999.90;;;13.60;99.90;;;;;;4918255;29;20107;-72
2023/07/07 03:43:23;;;;;;;1999.90;999.90;;;13.50;99.90;;;;;;4901850;29;20098;-72
2023/07/07 03:45:49;;;;;;;1999.90;999.90;;;13.60;99.90;;;;;;4918826;29;20474;-73
2023/07/07 03:48:15;;;;;;;1999.90;999.90;;;13.50;99.90;;;;;;4916946;29;20052;-73
2023/07/07 03:50:40;;;;;;;1999.90;999.90;;;13.50;99.90;;;;;;4917129;29;20095;-72
2023/07/07 03:53:06;;;;;;;1999.90;999.90;;;13.50;99.90;;;;;;4917964;29;20143;-73
2023/07/07 03:55:32;;;;;;;1999.90;999.90;;;13.60;99.90;;;;;;4917981;29;20552;-73
2023/07/07 03:57:57;;;;;;;1999.90;999.90;;;13.60;99.90;;;;;;4917350;29;20444;-73
2023/07/07 04:00:24;;;;;;;1999.90;999.90;;;13.60;99.90;;;;;;4917915;29;20051;-72
2023/07/07 04:02:49;;;;;;;1999.90;999.90;;;13.60;99.90;;;;;;4917904;29;20489;-73
2023/07/07 04:05:15;;;;;;;1999.90;999.90;;;13.60;99.90;;;;;;4917923;29;20048;-72
2023/07/07 04:07:41;;;;;;;1999.90;999.90;;;13.60;99.90;;;;;;4916634;29;20050;-72
2023/07/07 04:10:08;;;;;;;1999.90;999.90;;;13.70;99.90;;;;;;4917469;29;20048;-73
2023/07/07 04:12:34;;;;;;;1999.90;999.90;;;13.70;99.90;;;;;;4917324;29;20451;-73
2023/07/07 04:15:00;;;;;;;1999.90;999.90;;;13.70;99.90;;;;;;4917598;29;20127;-73
2023/07/07 04:17:26;;;;;;;1999.90;999.90;;;13.70;99.90;;;;;;4917720;29;20127;-73
2023/07/07 04:19:53;;;;;;;1999.90;999.90;;;13.70;99.90;;;;;;4917689;29;20051;-73
2023/07/07 04:22:18;;;;;;;1999.90;999.90;;;13.80;99.90;;;;;;4917594;29;20044;-74
2023/07/07 04:24:44;;;;;;;1999.90;999.90;;;13.80;99.90;;;;;;4918010;29;20126;-73
2023/07/07 04:27:10;;;;;;;1999.90;999.90;;;13.80;99.90;;;;;;4916613;29;20055;-72
2023/07/07 04:29:36;;;;;;;1999.90;999.90;;;13.80;99.90;;;;;;4918054;29;20056;-72
2023/07/07 04:32:03;;;;;;;1999.90;999.90;;;13.90;99.90;;;;;;4917544;29;20412;-72
2023/07/07 04:34:30;;;;;;;1999.90;999.90;;;13.90;99.90;;;;;;4917406;29;20552;-72
2023/07/07 04:36:56;;;;;;;1999.90;999.90;;;13.90;99.90;;;;;;4917402;29;20059;-72
2023/07/07 04:39:22;;;;;;;1999.90;999.90;;;14.00;99.90;;;;;;4917960;29;20504;-72
2023/07/07 04:41:52;;;;;;;1999.90;999.90;;;14.00;99.90;;;;;;4918167;29;20048;-72
2023/07/07 04:44:18;;;;;;;1999.90;999.90;;;14.10;99.90;;;;;;4916240;29;20063;-72
2023/07/07 04:46:44;;;;;;;1999.90;999.90;;;14.10;99.90;;;;;;4917873;29;20401;-72
2023/07/07 04:49:11;;;;;;;1999.90;999.90;;;14.10;99.90;;;;;;4917557;29;20123;-72
2023/07/07 04:51:42;;;;;;;1999.90;999.90;;;14.10;99.90;;;;;;4917823;29;20048;-72
2023/07/07 04:54:12;;;;;;;1999.90;999.90;;;14.20;99.90;;;;;;4916309;29;20052;-72
2023/07/07 04:56:37;;;;;;;1999.90;999.90;;;14.20;99.90;;;;;;4917520;29;20123;-73
2023/07/07 04:59:04;;;;;;;1999.90;999.90;;;14.20;99.90;;;;;;4920888;29;20052;-73
2023/07/07 05:01:30;;;;;;;1999.90;999.90;;;14.30;99.90;;;;;;4921117;29;20060;-72
2023/07/07 05:03:59;;;;;;;1999.90;999.90;;;14.30;99.90;;;;;;4920068;29;20056;-73
2023/07/07 05:06:28;;;;;;;1999.90;999.90;;;14.40;99.90;;;;;;4921019;29;20382;-73
2023/07/07 05:08:54;;;;;;;1999.90;999.90;;;14.40;99.90;;;;;;4921309;29;20052;-73
2023/07/07 05:11:22;;;;;;;1999.90;999.90;;;14.40;99.90;;;;;;4920976;29;20135;-72
2023/07/07 05:13:50;;;;;;;1999.90;999.90;;;14.50;99.90;;;;;;4920926;29;20135;-73
2023/07/07 05:16:19;;;;;;;1999.90;999.90;;;14.50;99.90;;;;;;4920764;29;20044;-73
2023/07/07 05:18:44;;;;;;;1999.90;999.90;;;14.50;99.90;;;;;;4920909;29;20086;-72
2023/07/07 05:21:12;;;;;;;1999.90;999.90;;;14.60;99.90;;;;;;4920846;29;20056;-73
2023/07/07 05:23:38;;;;;;;1999.90;999.90;;;14.60;99.90;;;;;;4920694;29;20085;-73
2023/07/07 05:26:04;;;;;;;1999.90;999.90;;;14.60;99.90;;;;;;4921552;29;20079;-72
2023/07/07 05:28:30;;;;;;;1999.90;999.90;;;14.70;99.90;;;;;;4920701;29;20110;-72
2023/07/07 05:30:56;;;;;;;1999.90;999.90;;;14.70;99.90;;;;;;4920636;29;20043;-72
2023/07/07 05:33:22;;;;;;;1999.90;999.90;;;14.80;99.90;;;;;;4919926;29;20056;-73
2023/07/07 05:35:56;;;;;;;1999.90;999.90;;;14.80;99.90;;;;;;4920457;29;20103;-72
2023/07/07 05:38:24;;;;;;;1999.90;999.90;;;14.90;99.90;;;;;;4921062;29;20143;-73
2023/07/07 05:40:50;;;;;;;1999.90;999.90;;;14.90;99.90;;;;;;4919567;29;20055;-73
2023/07/07 05:43:17;;;;;;;1999.90;999.90;;;15.00;99.90;;;;;;4920506;29;20059;-72
2023/07/07 05:45:43;;;;;;;1999.90;999.90;;;15.00;99.90;;;;;;4920384;29;20393;-72
2023/07/07 05:48:11;;;;;;;1999.90;999.90;;;15.10;99.90;;;;;;4920310;29;20084;-72
2023/07/07 05:50:39;;;;;;;1999.90;999.90;;;15.10;99.90;;;;;;4903809;29;20040;-73
2023/07/07 05:53:05;;;;;;;1999.90;999.90;;;15.20;99.90;;;;;;4919255;29;20044;-72
2023/07/07 05:55:33;;;;;;;1999.90;999.90;;;15.30;99.90;;;;;;4920832;29;20048;-72
2023/07/07 05:58:00;;;;;;;1999.90;999.90;;;15.30;99.90;;;;;;4920136;29;20040;-73
2023/07/07 06:00:27;;;;;;;1999.90;999.90;;;15.40;99.90;;;;;;4920118;29;20103;-73
2023/07/07 06:02:57;;;;;;;1999.90;999.90;;;15.50;99.90;;;;;;4903364;29;20111;-72
2023/07/07 06:05:23;;;;;;;1999.90;999.90;;;15.50;99.90;;;;;;4919947;29;20094;-72
2023/07/07 06:07:51;;;;;;;1999.90;999.90;;;15.60;99.90;;;;;;4919932;29;20080;-72
2023/07/07 06:10:17;;;;;;;1999.90;999.90;;;15.60;99.90;;;;;;4917517;29;20393;-72
2023/07/07 06:12:42;;;;;;;1999.90;999.90;;;15.70;99.90;;;;;;4919843;29;20055;-73
2023/07/07 06:15:08;;;;;;;1999.90;999.90;;;15.70;99.90;;;;;;4920608;29;20196;-72
2023/07/07 06:17:34;;;;;;;1999.90;999.90;;;15.80;99.90;;;;;;4919797;29;20048;-72
2023/07/07 06:20:00;;;;;;;1999.90;999.90;;;15.90;99.90;;;;;;4919345;29;20183;-72
2023/07/07 06:22:26;;;;;;;1999.90;999.90;;;15.90;99.90;;;;;;4919715;29;20089;-72
2023/07/07 06:24:52;;;;;;;1999.90;999.90;;;16.00;99.90;;;;;;4919214;29;20143;-72
2023/07/07 06:27:19;;;;;;;1999.90;999.90;;;16.10;99.90;;;;;;4919393;29;20425;-72
2023/07/07 06:29:45;;;;;;;1999.90;999.90;;;16.10;99.90;;;;;;4919642;29;20044;-72
2023/07/07 06:32:11;;;;;;;1999.90;999.90;;;16.20;99.90;;;;;;4918374;29;20047;-71
2023/07/07 06:34:37;;;;;;;1999.90;999.90;;;16.30;99.90;;;;;;4919423;29;20051;-71
2023/07/07 06:37:03;;;;;;;1999.90;999.90;;;16.30;99.90;;;;;;4920033;29;20063;-70
2023/07/07 06:39:28;;;;;;;1999.90;999.90;;;16.40;99.90;;;;;;4918461;29;20405;-71
2023/07/07 06:41:55;;;;;;;1999.90;999.90;;;16.40;99.90;;;;;;4920152;29;20051;-71
2023/07/07 06:44:21;;;;;;;1999.90;999.90;;;16.50;99.90;;;;;;4919353;29;20048;-71
2023/07/07 06:46:47;;;;;;;1999.90;999.90;;;16.60;99.90;;;;;;4918187;29;20131;-71
2023/07/07 06:49:12;;;;;;;1999.90;999.90;;;16.60;99.90;;;;;;4918314;29;20059;-71
2023/07/07 06:51:38;;;;;;;1999.90;999.90;;;16.70;99.90;;;;;;4919229;29;20481;-71
2023/07/07 06:54:04;;;;;;;1999.90;999.90;;;16.70;99.90;;;;;;4919087;29;20091;-71
2023/07/07 06:56:30;;;;;;;1999.90;999.90;;;16.80;99.90;;;;;;4919057;29;20135;-71
2023/07/07 06:58:55;;;;;;;1999.90;999.90;;;16.90;99.90;;;;;;4919104;29;20085;-71
2023/07/07 07:01:21;;;;;;;1999.90;999.90;;;17.00;99.90;;;;;;4918760;29;20058;-71
2023/07/07 07:03:47;;;;;;;1999.90;999.90;;;17.00;99.90;;;;;;4919067;29;20058;-71
2023/07/07 07:06:13;;;;;;;1999.90;999.90;;;17.10;99.90;;;;;;4918948;29;20103;-71
2023/07/07 07:08:39;;;;;;;1999.90;999.90;;;17.20;99.90;;;;;;4917684;29;20063;-72
2023/07/07 07:11:06;;;;;;;1999.90;999.90;;;17.30;99.90;;;;;;4919210;29;20044;-72
2023/07/07 07:13:32;;;;;;;1999.90;999.90;;;17.40;99.90;;;;;;4919451;29;20040;-71
2023/07/07 07:15:58;;;;;;;1999.90;999.90;;;17.50;99.90;;;;;;4919560;29;20101;-72
2023/07/07 07:18:24;;;;;;;1999.90;999.90;;;17.50;99.90;;;;;;4918760;29;20519;-72
2023/07/07 07:20:51;;;;;;;1999.90;999.90;;;17.50;99.90;;;;;;4917745;29;20052;-72
2023/07/07 07:23:18;;;;;;;1999.90;999.90;;;17.60;99.90;;;;;;4919135;29;20059;-75
2023/07/07 07:25:44;;;;;;;1999.90;999.90;;;17.70;99.90;;;;;;4918569;29;20096;-71
2023/07/07 07:28:11;;;;;;;1999.90;999.90;;;17.70;99.90;;;;;;4918573;29;20056;-71
2023/07/07 07:30:37;;;;;;;1999.90;999.90;;;17.80;99.90;;;;;;4918486;29;20473;-71
2023/07/07 07:33:11;;;;;;;1999.90;999.90;;;17.90;99.90;;;;;;4917548;29;20052;-71
2023/07/07 07:35:37;;;;;;;1999.90;999.90;;;17.90;99.90;;;;;;4918407;29;20083;-71
2023/07/07 07:38:02;;;;;;;1999.90;999.90;;;18.00;99.90;;;;;;4918402;29;20087;-71
2023/07/07 07:40:28;;;;;;;1999.90;999.90;;;18.00;99.90;;;;;;4918267;29;20135;-71
2023/07/07 07:42:54;;;;;;;1999.90;999.90;;;18.10;99.90;;;;;;4918341;29;20052;-71
2023/07/07 07:45:21;;;;;;;1999.90;999.90;;;18.10;99.90;;;;;;4918239;29;20127;-72
2023/07/07 07:47:47;;;;;;;1999.90;999.90;;;18.20;99.90;;;;;;4917470;29;20066;-71
2023/07/07 07:50:15;;;;;;;1999.90;999.90;;;18.20;99.90;;;;;;4918622;29;20044;-71
2023/07/07 07:52:41;;;;;;;1999.90;999.90;;;18.20;99.90;;;;;;4921441;29;20048;-70
2023/07/07 07:55:07;;;;;;;1999.90;999.90;;;18.30;99.90;;;;;;4918069;29;20051;-71
2023/07/07 07:57:33;;;;;;;1999.90;999.90;;;18.40;99.90;;;;;;4918210;29;20075;-71
2023/07/07 07:59:59;;;;;;;1999.90;999.90;;;18.40;99.90;;;;;;4917016;29;20040;-71
2023/07/07 08:02:25;;;;;;;1999.90;999.90;;;18.50;99.90;;;;;;4917122;29;20095;-71
2023/07/07 08:04:50;;;;;;;1999.90;999.90;;;18.50;99.90;;;;;;4918834;29;20052;-72
2023/07/07 08:07:16;;;;;;;1999.90;999.90;;;18.60;99.90;;;;;;4901300;29;20079;-71
2023/07/07 08:09:42;;;;;;;1999.90;999.90;;;18.70;99.90;;;;;;4918534;29;20187;-71
2023/07/07 08:12:09;;;;;;;1999.90;999.90;;;18.80;99.90;;;;;;4917007;29;20371;-71
2023/07/07 08:14:36;;;;;;;1999.90;999.90;;;18.80;99.90;;;;;;4917825;29;20444;-71
2023/07/07 08:17:13;;;;;;;1999.90;999.90;;;18.90;99.90;;;;;;4917941;29;20281;-71
2023/07/07 08:19:40;;;;;;;1999.90;999.90;;;19.00;99.90;;;;;;4918476;29;20366;-71
2023/07/07 08:22:10;;;;;;;1999.90;999.90;;;19.00;99.90;;;;;;4917755;29;20048;-72
2023/07/07 08:24:47;;;;;;;1999.90;999.90;;;19.00;99.90;;;;;;4917655;29;20130;-72
2023/07/07 08:27:14;;;;;;;1999.90;999.90;;;19.10;99.90;;;;;;4917628;29;20135;-71
2023/07/07 08:29:41;;;;;;;1999.90;999.90;;;19.20;99.90;;;;;;4917959;29;20048;-71
2023/07/07 08:32:08;;;;;;;1999.90;999.90;;;19.30;99.90;;;;;;4915461;29;20524;-71
2023/07/07 08:34:34;;;;;;;1999.90;999.90;;;19.30;99.90;;;;;;4917497;29;20048;-72
2023/07/07 08:36:59;;;;;;;1999.90;999.90;;;19.40;99.90;;;;;;4916874;29;20058;-72
2023/07/07 08:39:28;;;;;;;1999.90;999.90;;;19.50;99.90;;;;;;4917571;29;20087;-72
2023/07/07 08:42:03;;;;;;;1999.90;999.90;;;19.60;99.90;;;;;;4917491;29;20135;-72
2023/07/07 08:44:31;;;;;;;1999.90;999.90;;;19.70;99.90;;;;;;4917801;29;20048;-72
2023/07/07 08:47:10;;;;;;;1999.90;999.90;;;19.80;99.90;;;;;;4917452;29;20111;-73
2023/07/07 08:49:56;;;;;;;1999.90;999.90;;;19.80;99.90;;;;;;4916228;29;20054;-72
2023/07/07 08:52:42;;;;;;;1999.90;999.90;;;19.90;99.90;;;;;;4901586;29;20143;-72
2023/07/07 08:55:45;;;;;;;1999.90;999.90;;;20.00;99.90;;;;;;4918111;29;20051;-72
2023/07/07 08:58:30;;;;;;;1999.90;999.90;;;20.00;99.90;;;;;;4894988;29;20524;-73
2023/07/07 09:01:10;;;;;;;1999.90;999.90;;;20.10;99.90;;;;;;4917654;29;20056;-72
2023/07/07 09:03:57;;;;;;;1999.90;999.90;;;20.20;99.90;;;;;;4917682;29;20056;-72
2023/07/07 09:06:41;;;;;;;1999.90;999.90;;;20.30;99.90;;;;;;4917268;29;20055;-72
2023/07/07 09:09:23;;;;;;;1999.90;999.90;;;20.30;99.90;;;;;;4917314;29;20377;-71
2023/07/07 09:12:06;;;;;;;1999.90;999.90;;;20.40;99.90;;;;;;4917818;29;20048;-72
2023/07/07 09:14:33;;;;;;;1999.90;999.90;;;20.50;99.90;;;;;;4916267;29;20063;-72
2023/07/07 09:17:15;;;;;;;1999.90;999.90;;;20.50;99.90;;;;;;4916799;29;20484;-72
2023/07/07 09:19:44;;;;;;;1999.90;999.90;;;20.60;99.90;;;;;;4916534;29;20052;-72
2023/07/07 09:22:24;;;;;;;1999.90;999.90;;;20.60;99.90;;;;;;4917066;29;20316;-71
2023/07/07 09:25:02;;;;;;;1999.90;999.90;;;20.60;99.90;;;;;;4917089;29;20507;-71
2023/07/07 09:27:42;;;;;;;1999.90;999.90;;;20.70;99.90;;;;;;4917663;29;20094;-72
2023/07/07 09:30:19;;;;;;;1999.90;999.90;;;20.70;99.90;;;;;;4901276;29;20044;-72
2023/07/07 09:32:46;;;;;;;1999.90;999.90;;;20.70;99.90;;;;;;4917071;29;20056;-71
2023/07/07 09:35:14;;;;;;;1999.90;999.90;;;20.80;99.90;;;;;;4916947;29;20052;-72
2023/07/07 09:37:45;;;;;;;1999.90;999.90;;;20.80;99.90;;;;;;4915499;29;20560;-71
2023/07/07 09:40:40;;;;;;;1999.90;999.90;;;20.80;99.90;;;;;;4916329;29;20048;-72
2023/07/07 09:43:26;;;;;;;1999.90;999.90;;;20.90;99.90;;;;;;4917960;29;20364;-71
2023/07/07 09:46:07;;;;;;;1999.90;999.90;;;20.80;99.90;;;;;;4920544;29;20044;-72
2023/07/07 09:48:51;;;;;;;1999.90;999.90;;;20.90;99.90;;;;;;4921015;29;20064;-72
2023/07/07 09:51:50;;;;;;;1999.90;999.90;;;20.90;99.90;;;;;;4921213;29;20052;-72
2023/07/07 09:54:18;;;;;;;1999.90;999.90;;;20.90;99.90;;;;;;4911303;29;20545;-72
2023/07/07 09:56:55;;;;;;;1999.90;999.90;;;20.90;99.90;;;;;;4920226;29;20040;-72
2023/07/07 09:59:26;;;;;;;1999.90;999.90;;;21.00;99.90;;;;;;4920567;29;20083;-71
2023/07/07 10:05:21;;;;;;;1999.90;999.90;;;21.10;99.90;;;;;;4920563;29;20048;-71
2023/07/07 10:07:47;;;;;;;1999.90;999.90;;;21.20;99.90;;;;;;4920374;29;20059;-71
2023/07/07 10:10:13;;;;;;;1999.90;999.90;;;21.20;99.90;;;;;;4920067;29;20090;-71
2023/07/07 10:12:40;;;;;;;1999.90;999.90;;;21.30;99.90;;;;;;4919962;29;20056;-72
2023/07/07 10:15:27;;;;;;;1999.90;999.90;;;21.30;99.90;;;;;;4919767;29;20059;-72
2023/07/07 10:18:24;;;;;;;1999.90;999.90;;;21.40;99.90;;;;;;4919961;29;20058;-72
2023/07/07 10:20:50;;;;;;;1999.90;999.90;;;21.40;99.90;;;;;;4919261;29;20083;-71
2023/07/07 10:23:16;;;;;;;1999.90;999.90;;;21.40;99.90;;;;;;4918669;29;20052;-71
2023/07/07 10:25:44;;;;;;;1999.90;999.90;;;21.50;99.90;;;;;;4920220;29;20393;-71
2023/07/07 10:28:13;;;;;;;1999.90;999.90;;;21.60;99.90;;;;;;4919689;29;20045;-72
2023/07/07 10:30:41;;;;;;;1999.90;999.90;;;21.70;99.90;;;;;;4902759;29;20533;-71
2023/07/07 10:33:10;;;;;;;1999.90;999.90;;;21.70;99.90;;;;;;4920308;29;20071;-72
2023/07/07 10:35:36;;;;;;;1999.90;999.90;;;21.70;99.90;;;;;;4919829;29;20123;-72
2023/07/07 10:38:06;;;;;;;1999.90;999.90;;;21.80;99.90;;;;;;4920157;29;20461;-72
2023/07/07 10:40:32;;;;;;;1999.90;999.90;;;21.80;99.90;;;;;;4918636;29;20060;-71
2023/07/07 10:42:58;;;;;;;1999.90;999.90;;;21.80;99.90;;;;;;4919497;29;20111;-71
2023/07/07 10:45:25;;;;;;;1999.90;999.90;;;21.80;99.90;;;;;;4919486;29;20075;-72
2023/07/07 10:47:51;;;;;;;1999.90;999.90;;;21.90;99.90;;;;;;4919439;29;20055;-71
2023/07/07 10:50:20;;;;;;;1999.90;999.90;;;21.90;99.90;;;;;;4919348;29;20052;-72
2023/07/07 10:53:09;;;;;;;1999.90;999.90;;;22.00;99.90;;;;;;4919071;29;20119;-73
2023/07/07 10:56:10;;;;;;;1999.90;999.90;;;22.00;99.90;;;;;;4918192;29;20036;-71
2023/07/07 10:58:54;;;;;;;1999.90;999.90;;;22.10;99.90;;;;;;4918486;29;20066;-71
2023/07/07 11:01:32;;;;;;;1999.90;999.90;;;22.10;99.90;;;;;;4918241;29;20508;-71
2023/07/07 11:04:25;;;;;;;1999.90;999.90;;;22.10;99.90;;;;;;4918264;29;20413;-71
2023/07/07 11:07:14;;;;;;;1999.90;999.90;;;22.20;99.90;;;;;;4919794;29;20070;-71
2023/07/07 11:10:01;;;;;;;1999.90;999.90;;;22.20;99.90;;;;;;4916287;29;20102;-71
2023/07/07 11:13:01;;;;;;;1999.90;999.90;;;22.30;99.90;;;;;;4918891;29;20052;-71
2023/07/07 11:16:02;;;;;;;1999.90;999.90;;;22.30;99.90;;;;;;4918519;29;20572;-71
2023/07/07 11:18:54;;;;;;;1999.90;999.90;;;22.40;99.90;;;;;;4909652;29;20056;-71
2023/07/07 11:21:37;;;;;;;1999.90;999.90;;;22.40;99.90;;;;;;4908741;29;20060;-72
2023/07/07 11:24:21;;;;;;;1999.90;999.90;;;22.40;99.90;;;;;;4919407;29;20058;-72
2023/07/07 11:27:14;;;;;;;1999.90;999.90;;;22.40;99.90;;;;;;4917463;29;20481;-71
2023/07/07 11:30:05;;;;;;;1999.90;999.90;;;22.50;99.90;;;;;;4918599;29;20052;-71
2023/07/07 11:32:38;;;;;;;1999.90;999.90;;;22.50;99.90;;;;;;4918600;29;20087;-71
2023/07/07 11:35:41;;;;;;;1999.90;999.90;;;22.50;99.90;;;;;;4918752;29;20052;-71
2023/07/07 11:38:32;;;;;;;1999.90;999.90;;;22.60;99.90;;;;;;4918738;29;20442;-72
2023/07/07 11:41:02;;;;;;;1999.90;999.90;;;22.70;99.90;;;;;;4918378;29;20120;-72
2023/07/07 11:43:37;;;;;;;1999.90;999.90;;;22.70;99.90;;;;;;4917870;29;20103;-72
2023/07/07 11:46:29;;;;;;;1999.90;999.90;;;22.80;99.90;;;;;;4918314;29;20048;-72
2023/07/07 11:49:13;;;;;;;1999.90;999.90;;;22.80;99.90;;;;;;4918286;29;20048;-72
2023/07/07 11:51:59;;;;;;;1999.90;999.90;;;22.90;99.90;;;;;;4919017;29;20095;-71
2023/07/07 11:54:27;;;;;;;1999.90;999.90;;;23.00;99.90;;;;;;4918077;29;20051;-72
2023/07/07 11:57:26;;;;;;;1999.90;999.90;;;23.10;99.90;;;;;;4916745;29;20051;-72
2023/07/07 12:00:14;;;;;;;1999.90;999.90;;;23.10;99.90;;;;;;4918158;29;20059;-72
2023/07/07 12:02:52;;;;;;;1999.90;999.90;;;23.20;99.90;;;;;;4917821;29;20071;-71
2023/07/07 12:05:27;;;;;;;1999.90;999.90;;;23.20;99.90;;;;;;4916737;29;20067;-72
2023/07/07 12:08:03;;;;;;;1999.90;999.90;;;23.20;99.90;;;;;;4901300;29;20059;-70
2023/07/07 12:10:41;;;;;;;1999.90;999.90;;;23.20;99.90;;;;;;4917577;29;20052;-71
2023/07/07 12:13:18;;;;;;;1999.90;999.90;;;23.20;99.90;;;;;;4918430;29;20056;-71
2023/07/07 12:15:50;;;;;;;1999.90;999.90;;;23.30;99.90;;;;;;4917817;29;20040;-70
2023/07/07 12:18:45;;;;;;;1999.90;999.90;;;23.30;99.90;;;;;;4916729;29;20140;-71
2023/07/07 12:21:15;;;;;;;1999.90;999.90;;;23.40;99.90;;;;;;4916642;29;20060;-70